Neoga, Illinois
Current Conditions -  °F | °C
As of 11:53 AM on Thursday 29 Jan 2015 (Local Time) from KMTO Reporting Station
Haze Haze  
Wind Chill: 26°   Ceiling: 1700
Heat Index: 36°   Visibility: 6mi
Dew Point: 30°   Wind: 17mph
Humidity: 79%   Direction: 310°NW
Pressure: 30.02"   Gusts: NA
Location:  39.32°N, 88.45°W
Report Text: KMTO 291753Z AUTO 31015KT 6SM HZ OVC017 02/M01 A3002 RMK AO2 PK WND 30027/1719 SLP172 T00221011 10061 20022 51036
Loading
Personal Weather Stations






























Interactive Weather Map New forecast layout! Learn more

10-Day Weather Forecast

Advertisements
Track Severe Weather on mobile